Time;durP1;ratioP1;P1;durP2;ratioP2;P2;SDS_P1;SDS_P2;PMS_P1;PMS_P2;Temp;Humidity;BMP_temperature;BMP_pressure;BME280_temperature;BME280_humidity;BME280_pressure;Samples;Min_cycle;Max_cycle;Signal;HPM_P1;HPM_P2
2022/09/20 00:01:08;;;;;;;9.63;8.73;;;8.00;99.90;;;;;;4976216;28;20236;-78
2022/09/20 00:03:36;;;;;;;9.70;8.87;;;7.90;99.90;;;;;;4963046;28;20570;-78
2022/09/20 00:06:04;;;;;;;9.70;8.70;;;7.90;99.90;;;;;;4965648;28;20714;-77
2022/09/20 00:08:31;;;;;;;9.10;8.43;;;7.80;99.90;;;;;;4973898;28;20237;-78
2022/09/20 00:11:01;;;;;;;9.47;8.53;;;7.80;99.90;;;;;;4968815;28;20222;-78
2022/09/20 00:13:28;;;;;;;8.77;8.07;;;7.80;99.90;;;;;;4962847;28;20198;-78
2022/09/20 00:15:55;;;;;;;8.90;8.20;;;7.70;99.90;;;;;;4961723;29;20209;-77
2022/09/20 00:18:23;;;;;;;8.73;8.03;;;7.70;99.90;;;;;;4968321;28;20213;-78
2022/09/20 00:20:51;;;;;;;9.97;9.17;;;7.60;99.90;;;;;;4988447;23;20236;-82
2022/09/20 00:23:18;;;;;;;9.30;8.50;;;7.60;99.90;;;;;;4960627;28;20225;-82
2022/09/20 00:25:45;;;;;;;9.83;9.03;;;7.50;99.90;;;;;;4963286;28;20206;-82
2022/09/20 00:28:12;;;;;;;9.87;8.60;;;7.50;99.90;;;;;;4963226;28;20208;-82
2022/09/20 00:30:39;;;;;;;9.63;8.77;;;7.50;99.90;;;;;;4955019;28;20639;-82
2022/09/20 00:33:06;;;;;;;10.13;9.23;;;7.60;99.90;;;;;;4944512;29;20769;-82
2022/09/20 00:35:33;;;;;;;9.70;8.90;;;7.50;99.90;;;;;;4946441;29;20197;-81
2022/09/20 00:38:00;;;;;;;9.67;8.90;;;7.40;99.90;;;;;;4950413;29;20198;-81
2022/09/20 00:40:27;;;;;;;10.00;9.10;;;7.40;99.90;;;;;;4941712;29;20600;-82
2022/09/20 00:42:54;;;;;;;9.73;8.73;;;7.40;99.90;;;;;;4945784;29;20221;-81
2022/09/20 00:45:23;;;;;;;10.00;9.17;;;7.50;99.90;;;;;;4935821;29;20198;-82
2022/09/20 00:47:56;;;;;;;11.60;9.17;;;7.50;99.90;;;;;;4939256;29;20211;-81
2022/09/20 00:50:31;;;;;;;10.70;9.60;;;7.50;99.90;;;;;;4936150;29;20739;-81
2022/09/20 00:53:05;;;;;;;10.70;9.47;;;7.50;99.90;;;;;;4944854;29;20205;-81
2022/09/20 00:55:35;;;;;;;9.37;8.67;;;7.60;99.90;;;;;;4942843;29;20208;-81
2022/09/20 00:58:02;;;;;;;10.17;9.37;;;7.60;99.90;;;;;;4942222;29;20197;-80
2022/09/20 01:00:29;;;;;;;9.60;8.90;;;7.70;99.90;;;;;;4937533;29;20269;-81
2022/09/20 01:03:01;;;;;;;10.13;9.23;;;7.70;99.90;;;;;;4952258;29;20227;-81
2022/09/20 01:05:28;;;;;;;10.20;9.40;;;7.70;99.90;;;;;;4949549;29;20254;-82
2022/09/20 01:07:56;;;;;;;10.20;9.30;;;7.70;99.90;;;;;;4949160;29;20207;-81
2022/09/20 01:10:24;;;;;;;10.20;9.33;;;7.70;99.90;;;;;;4946350;29;20267;-81
2022/09/20 01:12:52;;;;;;;9.97;9.13;;;7.70;99.90;;;;;;4947576;29;20200;-82
2022/09/20 01:15:20;;;;;;;9.63;8.83;;;7.60;99.90;;;;;;4945733;29;20210;-82
2022/09/20 01:17:50;;;;;;;10.50;9.50;;;7.60;99.90;;;;;;4949322;29;20304;-81
2022/09/20 01:20:22;;;;;;;10.27;9.33;;;7.60;99.90;;;;;;4951200;29;20291;-81
2022/09/20 01:23:19;;;;;;;10.00;9.20;;;7.50;99.90;;;;;;4945647;29;20214;-81
2022/09/20 01:26:11;;;;;;;10.07;9.20;;;7.50;99.90;;;;;;4944390;29;20208;-82
2022/09/20 01:28:42;;;;;;;9.50;8.70;;;7.40;99.90;;;;;;4945495;29;20197;-82
2022/09/20 01:31:15;;;;;;;9.77;8.77;;;7.40;99.90;;;;;;4953188;29;20252;-81
2022/09/20 01:33:47;;;;;;;9.53;8.63;;;7.30;99.90;;;;;;4946088;29;20196;-81
2022/09/20 01:36:18;;;;;;;8.93;8.23;;;7.30;99.90;;;;;;4944059;29;20449;-81
2022/09/20 01:38:54;;;;;;;9.67;8.80;;;7.30;99.90;;;;;;4947469;29;20264;-81
2022/09/20 01:41:25;;;;;;;9.73;8.93;;;7.20;99.90;;;;;;4938925;29;20214;-81
2022/09/20 01:43:58;;;;;;;9.10;8.40;;;7.20;99.90;;;;;;4944009;29;20237;-81
2022/09/20 01:46:31;;;;;;;11.43;9.40;;;7.10;99.90;;;;;;4936439;29;20265;-81
2022/09/20 01:49:09;;;;;;;10.07;9.30;;;7.10;99.90;;;;;;4936032;29;20587;-81
2022/09/20 01:52:22;;;;;;;9.50;8.80;;;7.20;99.90;;;;;;4947953;29;20229;-81
2022/09/20 01:55:34;;;;;;;10.10;9.30;;;7.10;99.90;;;;;;4949149;29;20204;-81
2022/09/20 01:58:32;;;;;;;9.47;8.73;;;7.00;99.90;;;;;;4952292;29;20211;-81
2022/09/20 02:01:24;;;;;;;8.90;8.20;;;7.00;99.90;;;;;;4952647;29;20217;-81
2022/09/20 02:04:07;;;;;;;10.17;9.33;;;6.90;99.90;;;;;;4948923;29;20221;-81
2022/09/20 02:06:59;;;;;;;8.50;7.80;;;7.00;99.90;;;;;;4943147;29;20697;-82
2022/09/20 02:09:42;;;;;;;10.00;8.70;;;7.10;99.90;;;;;;4953441;29;20213;-81
2022/09/20 02:12:26;;;;;;;8.93;7.90;;;7.10;99.90;;;;;;4949826;28;20285;-82
2022/09/20 02:15:02;;;;;;;8.90;8.10;;;7.30;99.90;;;;;;4944473;29;20208;-81
2022/09/20 02:17:39;;;;;;;9.20;8.40;;;7.40;99.90;;;;;;4948360;29;20260;-81
2022/09/20 02:20:32;;;;;;;9.13;8.30;;;7.40;99.90;;;;;;4947447;29;20235;-81
2022/09/20 02:23:22;;;;;;;9.07;8.27;;;7.50;99.90;;;;;;4951211;29;20319;-81
2022/09/20 02:26:10;;;;;;;9.17;8.27;;;7.50;99.90;;;;;;4953560;29;20244;-83
2022/09/20 02:28:52;;;;;;;10.00;8.93;;;7.60;99.90;;;;;;4947057;29;20205;-81
2022/09/20 02:31:31;;;;;;;10.97;9.07;;;7.60;99.90;;;;;;4948784;29;20227;-81
2022/09/20 02:34:19;;;;;;;9.83;8.97;;;7.70;99.90;;;;;;4957865;28;20244;-82
2022/09/20 02:37:01;;;;;;;9.13;8.43;;;7.70;99.90;;;;;;4953516;29;20197;-81
2022/09/20 02:39:35;;;;;;;9.07;8.23;;;7.70;99.90;;;;;;4941977;29;20214;-81
2022/09/20 02:42:11;;;;;;;9.17;8.47;;;7.70;99.90;;;;;;4945810;29;20679;-80
2022/09/20 02:44:47;;;;;;;9.40;8.57;;;7.70;99.90;;;;;;4950557;29;20252;-81
2022/09/20 02:47:23;;;;;;;9.77;8.80;;;7.60;99.90;;;;;;4948375;29;20229;-81
2022/09/20 02:50:05;;;;;;;8.70;8.10;;;7.60;99.90;;;;;;4947217;29;20663;-81
2022/09/20 02:52:40;;;;;;;9.53;8.83;;;7.60;99.90;;;;;;4945350;29;20194;-77
2022/09/20 02:55:15;;;;;;;9.73;9.00;;;7.50;99.90;;;;;;4949911;29;20254;-78
2022/09/20 02:57:50;;;;;;;8.80;8.17;;;7.40;99.90;;;;;;4951568;28;20626;-77
2022/09/20 03:00:22;;;;;;;9.13;8.43;;;7.30;99.90;;;;;;4961770;28;20224;-77
2022/09/20 03:03:02;;;;;;;9.17;8.37;;;7.30;99.90;;;;;;4961269;28;20682;-77
2022/09/20 03:05:43;;;;;;;8.80;8.20;;;7.10;99.90;;;;;;4943824;29;20205;-77
2022/09/20 03:08:29;;;;;;;11.00;10.00;;;7.10;99.90;;;;;;4943854;29;20647;-77
2022/09/20 03:11:04;;;;;;;6.93;4.90;;;7.00;99.90;;;;;;4948087;29;20280;-76
2022/09/20 03:13:46;;;;;;;11.13;10.30;;;6.90;99.90;;;;;;4951530;28;20190;-78
2022/09/20 03:16:20;;;;;;;9.40;8.80;;;6.90;99.90;;;;;;4960294;28;20207;-81
2022/09/20 03:18:56;;;;;;;9.90;9.20;;;6.90;99.90;;;;;;4967816;28;20239;-77
2022/09/20 03:21:40;;;;;;;9.90;9.20;;;6.80;99.90;;;;;;4943356;29;20228;-78
2022/09/20 03:24:19;;;;;;;10.70;9.70;;;6.80;99.90;;;;;;4942556;29;20220;-78
2022/09/20 03:26:53;;;;;;;11.47;10.37;;;6.70;99.90;;;;;;4943260;29;20228;-77
2022/09/20 03:29:34;;;;;;;10.20;9.40;;;6.80;99.90;;;;;;4944442;29;20733;-78
2022/09/20 03:32:16;;;;;;;10.30;9.33;;;6.80;99.90;;;;;;4944968;29;20589;-79
2022/09/20 03:34:55;;;;;;;10.27;9.57;;;6.80;99.90;;;;;;4947524;29;20202;-78
2022/09/20 03:37:48;;;;;;;11.70;10.60;;;6.80;99.90;;;;;;4944191;29;20208;-79
2022/09/20 03:40:57;;;;;;;10.30;9.27;;;6.90;99.90;;;;;;4944090;29;20651;-79
2022/09/20 03:43:40;;;;;;;10.23;9.30;;;6.90;99.90;;;;;;4941928;29;20732;-79
2022/09/20 03:46:17;;;;;;;10.77;9.83;;;6.90;99.90;;;;;;4938489;29;20238;-79
2022/09/20 03:49:07;;;;;;;10.70;9.90;;;7.00;99.90;;;;;;4943321;29;20203;-79
2022/09/20 03:51:45;;;;;;;11.20;10.40;;;7.00;99.90;;;;;;4941886;29;20227;-78
2022/09/20 03:54:51;;;;;;;11.13;10.23;;;6.90;99.90;;;;;;4945142;29;20204;-79
2022/09/20 03:57:38;;;;;;;10.70;9.90;;;7.00;99.90;;;;;;4943135;29;20210;-79
2022/09/20 04:00:25;;;;;;;11.20;10.10;;;7.10;99.90;;;;;;4943218;29;20299;-79
2022/09/20 04:03:13;;;;;;;12.80;11.70;;;7.20;99.90;;;;;;4949734;29;20276;-78
2022/09/20 04:05:51;;;;;;;11.73;10.73;;;7.30;99.90;;;;;;4946818;29;20253;-79
2022/09/20 04:08:36;;;;;;;11.73;10.93;;;7.40;99.90;;;;;;4944757;29;20251;-79
2022/09/20 04:11:14;;;;;;;12.07;11.10;;;7.40;99.90;;;;;;4950635;29;20215;-79
2022/09/20 04:13:48;;;;;;;10.83;10.00;;;7.50;99.90;;;;;;4946195;29;20252;-78
2022/09/20 04:16:25;;;;;;;13.20;10.50;;;7.50;99.90;;;;;;4944881;28;20250;-78
2022/09/20 04:18:57;;;;;;;11.17;10.30;;;7.60;99.90;;;;;;4946412;29;20204;-80
2022/09/20 04:21:30;;;;;;;11.80;10.80;;;7.60;99.90;;;;;;4944231;29;20238;-79
2022/09/20 04:24:02;;;;;;;11.27;10.47;;;7.60;99.90;;;;;;4941257;29;20216;-79
2022/09/20 04:26:36;;;;;;;11.33;10.37;;;7.60;99.90;;;;;;4937620;29;20605;-79
2022/09/20 04:29:15;;;;;;;10.40;9.47;;;7.60;99.90;;;;;;4945164;29;20255;-78
2022/09/20 04:31:49;;;;;;;10.40;9.50;;;7.60;99.90;;;;;;4944773;29;20333;-79
2022/09/20 04:34:21;;;;;;;10.67;9.97;;;7.70;99.90;;;;;;4937208;29;20582;-78
2022/09/20 04:36:57;;;;;;;10.80;9.93;;;7.70;99.90;;;;;;4944092;29;20238;-81
2022/09/20 04:39:33;;;;;;;11.60;10.63;;;7.80;99.90;;;;;;4955990;29;20202;-78
2022/09/20 04:42:44;;;;;;;10.33;9.63;;;7.90;99.90;;;;;;4956957;29;20249;-79
2022/09/20 04:45:37;;;;;;;10.60;9.90;;;7.90;99.90;;;;;;4953182;29;20201;-78
2022/09/20 04:48:27;;;;;;;11.37;10.43;;;7.90;99.90;;;;;;4953822;29;20205;-78
2022/09/20 04:51:22;;;;;;;10.83;10.03;;;7.90;99.90;;;;;;4956380;29;20222;-79
2022/09/20 04:54:16;;;;;;;10.93;10.13;;;7.90;99.90;;;;;;4958510;29;20726;-78
2022/09/20 04:57:06;;;;;;;11.63;10.63;;;7.90;99.90;;;;;;4955232;29;20222;-78
2022/09/20 04:59:52;;;;;;;11.18;10.30;;;7.90;99.90;;;;;;4959986;29;20440;-78
2022/09/20 05:02:49;;;;;;;10.87;10.17;;;7.90;99.90;;;;;;4957650;29;20698;-79
2022/09/20 05:05:39;;;;;;;10.67;9.97;;;7.90;99.90;;;;;;4919283;29;20213;-78
2022/09/20 05:08:49;;;;;;;13.17;12.17;;;7.80;99.90;;;;;;4958378;29;20229;-78
2022/09/20 05:11:46;;;;;;;11.63;10.63;;;7.80;99.90;;;;;;4955549;29;20234;-78
2022/09/20 05:15:01;;;;;;;11.93;11.07;;;7.80;99.90;;;;;;4937374;28;20218;-79
2022/09/20 05:17:42;;;;;;;12.00;11.20;;;7.90;99.90;;;;;;4954609;29;20208;-79
2022/09/20 05:20:31;;;;;;;11.37;10.47;;;7.90;99.90;;;;;;4957532;29;20284;-80
2022/09/20 05:23:33;;;;;;;11.80;10.83;;;8.00;99.90;;;;;;4954516;29;20329;-78
2022/09/20 05:26:23;;;;;;;10.97;10.27;;;8.00;99.90;;;;;;4909903;29;20212;-78
2022/09/20 05:28:56;;;;;;;12.00;10.80;;;8.00;99.90;;;;;;4944981;29;20602;-77
2022/09/20 05:31:36;;;;;;;10.47;9.77;;;8.00;99.90;;;;;;4949593;29;20246;-77
2022/09/20 05:34:15;;;;;;;11.60;10.70;;;8.10;99.90;;;;;;4944202;29;20198;-77
2022/09/20 05:36:50;;;;;;;11.60;10.50;;;8.10;99.90;;;;;;4949358;29;20198;-77
2022/09/20 05:39:29;;;;;;;11.57;10.67;;;8.10;99.90;;;;;;4945981;29;20256;-77
2022/09/20 05:41:59;;;;;;;11.40;10.60;;;8.10;99.90;;;;;;4951380;29;20214;-77
2022/09/20 05:44:38;;;;;;;14.47;13.13;;;8.10;99.90;;;;;;4949539;29;20214;-77
2022/09/20 05:47:16;;;;;;;12.43;11.33;;;8.10;99.90;;;;;;4949941;29;20201;-77
2022/09/20 05:49:59;;;;;;;11.93;10.83;;;8.10;99.90;;;;;;4943664;29;20579;-77
2022/09/20 05:52:35;;;;;;;14.40;13.20;;;8.10;99.90;;;;;;4954517;29;20199;-78
2022/09/20 05:55:28;;;;;;;17.33;16.13;;;8.10;99.90;;;;;;4946667;29;20190;-77
2022/09/20 05:58:11;;;;;;;13.03;12.03;;;8.20;99.90;;;;;;4945950;29;20230;-77
2022/09/20 06:00:44;;;;;;;12.57;11.47;;;8.20;99.90;;;;;;4949506;29;20217;-77
2022/09/20 06:03:20;;;;;;;11.77;10.80;;;8.10;99.90;;;;;;4946871;29;20222;-78
2022/09/20 06:05:58;;;;;;;12.33;11.53;;;8.20;99.90;;;;;;4943649;29;20561;-78
2022/09/20 06:09:03;;;;;;;12.50;11.50;;;8.20;99.90;;;;;;4952853;29;20661;-77
2022/09/20 06:11:49;;;;;;;11.93;11.07;;;8.20;99.90;;;;;;4946927;29;20277;-77
2022/09/20 06:14:26;;;;;;;11.97;11.07;;;8.20;99.90;;;;;;4945922;29;20195;-78
2022/09/20 06:17:01;;;;;;;12.23;11.23;;;8.30;99.90;;;;;;4948081;29;20281;-78
2022/09/20 06:19:38;;;;;;;13.20;12.30;;;8.30;99.90;;;;;;4947422;29;20198;-77
2022/09/20 06:22:13;;;;;;;12.70;11.90;;;8.40;99.90;;;;;;4944818;29;20202;-77
2022/09/20 06:24:46;;;;;;;13.27;12.27;;;8.40;99.90;;;;;;4941710;29;20234;-77
2022/09/20 06:27:18;;;;;;;13.63;12.63;;;8.40;99.90;;;;;;4952219;29;20198;-78
2022/09/20 06:29:52;;;;;;;14.40;13.17;;;8.40;99.90;;;;;;4944429;29;20562;-78
2022/09/20 06:32:19;;;;;;;14.03;12.97;;;8.50;99.90;;;;;;4951732;29;20203;-77
2022/09/20 06:34:47;;;;;;;13.00;12.07;;;8.50;99.90;;;;;;4939163;29;20192;-78
2022/09/20 06:43:18;;;;;;;14.10;13.07;;;8.40;99.90;;;;;;4951353;29;20218;-77
2022/09/20 06:45:45;;;;;;;14.63;13.63;;;8.50;99.90;;;;;;4953108;29;20279;-77
2022/09/20 06:48:14;;;;;;;14.80;13.70;;;8.50;99.90;;;;;;4946192;29;20198;-77
2022/09/20 06:50:44;;;;;;;14.00;13.10;;;8.60;99.90;;;;;;4945856;29;20305;-77
2022/09/20 06:53:16;;;;;;;13.80;12.90;;;8.70;99.90;;;;;;4944901;29;20199;-77
2022/09/20 06:55:43;;;;;;;13.80;12.57;;;8.70;99.90;;;;;;4948033;29;20206;-77
2022/09/20 06:58:11;;;;;;;13.87;12.67;;;8.70;99.90;;;;;;4946063;28;20228;-77
2022/09/20 07:00:38;;;;;;;14.27;13.20;;;8.70;99.90;;;;;;4938195;29;20238;-77
2022/09/20 07:03:05;;;;;;;13.83;12.83;;;8.80;99.90;;;;;;4945915;29;20294;-78
2022/09/20 07:05:32;;;;;;;13.70;12.80;;;8.90;99.90;;;;;;4954185;29;20206;-78
2022/09/20 07:08:01;;;;;;;14.20;13.30;;;9.00;99.90;;;;;;4947235;29;20241;-77
2022/09/20 07:10:28;;;;;;;14.33;13.10;;;9.20;99.90;;;;;;4945726;29;20221;-77
2022/09/20 07:12:59;;;;;;;15.73;14.50;;;9.30;99.90;;;;;;4943744;29;20195;-77
2022/09/20 07:15:27;;;;;;;11.80;10.70;;;9.40;99.90;;;;;;4947416;29;20202;-77
2022/09/20 07:17:54;;;;;;;8.13;7.33;;;9.50;99.90;;;;;;4944581;29;20222;-77
2022/09/20 07:20:21;;;;;;;13.37;12.23;;;9.70;99.90;;;;;;4949354;29;20234;-79
2022/09/20 07:22:48;;;;;;;13.60;12.70;;;9.90;99.90;;;;;;4946599;29;20245;-78
2022/09/20 07:25:17;;;;;;;13.97;12.73;;;10.20;99.90;;;;;;4944494;29;20273;-78
2022/09/20 07:27:45;;;;;;;14.00;12.80;;;10.60;99.90;;;;;;4944804;29;20200;-78
2022/09/20 07:30:13;;;;;;;11.87;11.07;;;11.10;99.90;;;;;;4943661;29;20309;-79
2022/09/20 07:32:40;;;;;;;11.87;10.97;;;11.30;99.90;;;;;;4944422;29;20203;-79
2022/09/20 07:35:08;;;;;;;10.07;8.60;;;11.50;99.90;;;;;;4937798;29;20189;-79
2022/09/20 07:37:36;;;;;;;8.53;6.00;;;11.60;99.90;;;;;;4946433;29;20819;-79
2022/09/20 07:40:04;;;;;;;4.97;4.40;;;11.80;99.90;;;;;;4942986;29;20597;-80
2022/09/20 07:42:32;;;;;;;11.60;10.70;;;11.80;99.90;;;;;;4952165;29;20618;-79
2022/09/20 07:45:01;;;;;;;4.90;4.00;;;11.80;99.90;;;;;;4947130;29;20276;-79
2022/09/20 07:47:30;;;;;;;5.17;3.70;;;11.60;99.90;;;;;;4949159;29;20207;-79
2022/09/20 07:49:57;;;;;;;7.70;4.40;;;11.60;99.90;;;;;;4957959;29;20218;-78
2022/09/20 07:52:24;;;;;;;4.57;3.93;;;11.90;99.90;;;;;;4944746;29;20267;-79
2022/09/20 07:54:50;;;;;;;8.07;4.13;;;12.40;99.90;;;;;;4947574;29;20279;-78
2022/09/20 07:57:17;;;;;;;11.90;10.90;;;12.90;99.90;;;;;;4951294;29;20210;-79
2022/09/20 07:59:46;;;;;;;6.80;4.23;;;13.30;99.90;;;;;;4952271;29;20542;-79
2022/09/20 08:02:15;;;;;;;11.40;10.60;;;13.60;99.90;;;;;;4946345;29;20203;-79
2022/09/20 08:04:42;;;;;;;11.57;10.67;;;13.60;99.90;;;;;;4953242;29;20254;-79
2022/09/20 08:07:08;;;;;;;11.70;10.67;;;13.60;99.90;;;;;;4947982;29;20195;-79
2022/09/20 08:09:35;;;;;;;11.03;10.33;;;14.00;99.90;;;;;;4948378;29;20248;-79
2022/09/20 08:12:04;;;;;;;11.60;10.70;;;14.40;99.90;;;;;;4949609;29;20195;-79
2022/09/20 08:14:31;;;;;;;12.10;11.00;;;14.80;99.90;;;;;;4939704;29;20596;-79
2022/09/20 08:16:59;;;;;;;12.40;11.33;;;15.20;99.90;;;;;;4951747;29;20218;-79
2022/09/20 08:19:26;;;;;;;12.33;11.33;;;15.80;99.90;;;;;;4946860;29;20199;-78
2022/09/20 08:21:53;;;;;;;12.33;11.37;;;16.10;99.90;;;;;;4949046;29;20220;-79
2022/09/20 08:24:20;;;;;;;13.47;11.60;;;16.00;99.90;;;;;;4945175;29;20236;-78
2022/09/20 08:26:48;;;;;;;6.00;4.43;;;15.70;99.90;;;;;;4948687;29;20202;-78
2022/09/20 08:29:15;;;;;;;7.23;5.10;;;15.50;99.90;;;;;;4946778;29;20213;-78
2022/09/20 08:31:42;;;;;;;9.77;4.67;;;15.20;99.90;;;;;;4944038;29;20257;-79
2022/09/20 08:34:13;;;;;;;11.17;10.03;;;15.70;99.90;;;;;;4944970;29;20652;-77
2022/09/20 08:36:44;;;;;;;9.43;6.17;;;15.40;99.90;;;;;;4944573;29;20682;-78
2022/09/20 08:39:11;;;;;;;5.87;4.00;;;15.40;99.90;;;;;;4942362;29;20652;-77
2022/09/20 08:41:43;;;;;;;12.23;11.00;;;15.90;99.90;;;;;;4946909;29;20226;-77
2022/09/20 08:44:15;;;;;;;10.50;9.43;;;16.40;99.90;;;;;;4950789;29;20310;-77
2022/09/20 08:46:45;;;;;;;12.40;11.23;;;16.70;99.90;;;;;;4944721;29;20202;-77
2022/09/20 08:49:20;;;;;;;11.60;10.50;;;16.60;99.90;;;;;;4943034;29;20203;-79
2022/09/20 08:51:49;;;;;;;9.30;8.13;;;17.30;99.90;;;;;;4954174;29;20217;-79
2022/09/20 08:54:16;;;;;;;11.20;10.10;;;17.40;99.90;;;;;;4947421;29;20206;-79
2022/09/20 08:56:45;;;;;;;9.57;7.47;;;16.90;99.90;;;;;;4948994;29;20212;-79
2022/09/20 08:59:16;;;;;;;7.43;4.00;;;16.60;99.90;;;;;;4947222;29;20672;-79
2022/09/20 09:01:43;;;;;;;10.30;6.23;;;16.70;99.90;;;;;;4949198;29;20275;-79
2022/09/20 09:04:14;;;;;;;9.87;8.90;;;16.30;99.90;;;;;;4939957;29;20228;-79
2022/09/20 09:06:42;;;;;;;10.67;9.63;;;16.20;99.90;;;;;;4952823;29;20198;-79
2022/09/20 09:09:17;;;;;;;11.57;9.37;;;15.80;99.90;;;;;;4948590;29;20231;-80
2022/09/20 09:11:44;;;;;;;12.87;10.53;;;15.80;99.90;;;;;;4947501;29;20288;-80
2022/09/20 09:17:10;;;;;;;11.30;10.30;;;16.30;99.90;;;;;;4942191;29;20239;-79
2022/09/20 09:19:46;;;;;;;10.13;9.30;;;15.80;99.90;;;;;;4949101;28;20569;-79
2022/09/20 09:22:19;;;;;;;4.53;3.30;;;15.10;99.90;;;;;;4950093;29;20212;-79
2022/09/20 09:25:02;;;;;;;9.13;8.43;;;15.20;99.90;;;;;;4947032;29;20386;-79
2022/09/20 09:27:29;;;;;;;10.60;9.70;;;15.80;99.90;;;;;;4946620;29;20674;-79
2022/09/20 09:29:56;;;;;;;11.30;10.20;;;15.90;99.90;;;;;;4947806;29;20215;-79
2022/09/20 09:32:27;;;;;;;10.97;10.10;;;15.50;99.90;;;;;;4939886;29;20203;-80
2022/09/20 09:34:56;;;;;;;8.50;7.60;;;15.80;99.90;;;;;;4949207;29;20694;-80
2022/09/20 09:37:26;;;;;;;10.37;9.47;;;16.50;99.90;;;;;;4952285;29;20656;-80
2022/09/20 09:40:15;;;;;;;10.43;9.53;;;16.80;99.90;;;;;;4952295;28;20714;-80
2022/09/20 09:42:50;;;;;;;10.33;9.30;;;16.40;99.90;;;;;;4936421;29;20298;-80
2022/09/20 09:45:30;;;;;;;10.07;9.10;;;15.80;99.90;;;;;;4947045;29;20225;-80
2022/09/20 09:47:58;;;;;;;10.27;9.37;;;15.30;99.90;;;;;;4956794;28;20209;-79
2022/09/20 09:50:30;;;;;;;11.40;10.10;;;15.20;99.90;;;;;;4945942;29;20319;-80
2022/09/20 09:53:02;;;;;;;9.80;9.00;;;15.10;99.90;;;;;;4948414;29;20606;-79
2022/09/20 09:55:42;;;;;;;6.30;3.10;;;15.20;99.90;;;;;;4943891;29;20195;-80
2022/09/20 09:58:21;;;;;;;5.53;3.20;;;15.60;99.90;;;;;;4947573;29;20198;-79
2022/09/20 10:00:48;;;;;;;9.83;8.80;;;16.10;99.90;;;;;;4955168;29;20229;-79
2022/09/20 10:03:32;;;;;;;8.77;8.17;;;16.60;99.90;;;;;;4955331;29;20217;-81
2022/09/20 10:06:13;;;;;;;9.30;8.70;;;16.50;99.90;;;;;;4955879;29;20310;-79
2022/09/20 10:08:53;;;;;;;10.13;9.20;;;16.20;99.90;;;;;;4946235;29;20741;-79
2022/09/20 10:11:32;;;;;;;9.30;8.50;;;15.70;99.90;;;;;;4938179;29;20253;-79
2022/09/20 10:14:13;;;;;;;9.27;8.50;;;15.40;99.90;;;;;;4937863;29;20202;-79
2022/09/20 10:16:57;;;;;;;9.30;8.40;;;15.40;99.90;;;;;;4938766;29;20205;-79
2022/09/20 10:19:37;;;;;;;10.03;9.10;;;15.30;99.90;;;;;;4936854;29;20285;-79
2022/09/20 10:22:16;;;;;;;9.30;7.87;;;15.60;99.90;;;;;;4945228;29;20218;-79
2022/09/20 10:24:50;;;;;;;9.23;8.43;;;15.70;99.90;;;;;;4949239;29;20218;-79
2022/09/20 10:27:32;;;;;;;11.70;8.90;;;15.50;99.90;;;;;;4944131;29;20269;-79
2022/09/20 10:30:09;;;;;;;9.43;8.33;;;15.40;99.90;;;;;;4944667;29;20255;-79
2022/09/20 10:32:57;;;;;;;5.03;2.60;;;15.20;99.90;;;;;;4938876;29;20692;-78
2022/09/20 10:35:30;;;;;;;7.90;7.20;;;15.30;99.90;;;;;;4951375;29;20217;-79
2022/09/20 10:38:12;;;;;;;9.40;8.60;;;15.40;99.90;;;;;;4945950;29;20198;-79
2022/09/20 10:43:50;;;;;;;9.67;8.83;;;15.30;99.90;;;;;;4947128;29;20208;-79
2022/09/20 10:46:27;;;;;;;5.00;3.10;;;15.20;99.90;;;;;;4946117;29;20223;-78
2022/09/20 10:49:03;;;;;;;5.57;2.57;;;15.20;99.90;;;;;;4951638;29;20209;-80
2022/09/20 10:51:42;;;;;;;6.23;5.57;;;15.40;99.90;;;;;;4947822;29;20316;-78
2022/09/20 10:54:22;;;;;;;6.33;2.70;;;15.50;99.90;;;;;;4949592;29;20208;-79
2022/09/20 10:56:54;;;;;;;2.87;2.33;;;15.80;99.90;;;;;;4951737;29;20202;-79
2022/09/20 10:59:41;;;;;;;4.53;2.47;;;16.20;99.90;;;;;;4956211;28;20233;-78
2022/09/20 11:02:21;;;;;;;3.83;2.50;;;16.50;99.90;;;;;;4947989;29;20246;-79
2022/09/20 11:05:09;;;;;;;4.13;2.50;;;16.50;99.90;;;;;;4947750;29;20222;-79
2022/09/20 11:07:47;;;;;;;2.90;2.40;;;16.60;99.90;;;;;;4950226;29;20199;-79
2022/09/20 11:10:21;;;;;;;4.10;3.53;;;17.00;99.90;;;;;;4948459;29;20250;-79
2022/09/20 11:12:51;;;;;;;3.93;3.03;;;16.90;99.90;;;;;;4948647;29;20290;-79
2022/09/20 11:15:23;;;;;;;4.10;3.00;;;16.80;99.90;;;;;;4948078;29;20187;-79
2022/09/20 11:17:59;;;;;;;6.53;4.77;;;16.50;99.90;;;;;;4948616;29;20278;-80
2022/09/20 11:20:29;;;;;;;11.40;7.93;;;16.20;99.90;;;;;;4946047;28;20226;-79
2022/09/20 11:23:02;;;;;;;3.87;3.50;;;15.80;99.90;;;;;;4946485;29;20750;-79
2022/09/20 11:25:36;;;;;;;10.03;9.20;;;15.40;99.90;;;;;;4946359;29;20209;-79
2022/09/20 11:28:12;;;;;;;8.17;6.47;;;15.10;99.90;;;;;;4949551;29;20202;-79
2022/09/20 11:30:47;;;;;;;10.47;9.40;;;14.80;99.90;;;;;;4944484;29;20287;-78
2022/09/20 11:33:21;;;;;;;6.97;6.37;;;14.50;99.90;;;;;;4947165;29;20201;-79
2022/09/20 11:35:52;;;;;;;9.63;8.93;;;14.40;99.90;;;;;;4948736;29;20219;-79
2022/09/20 11:38:24;;;;;;;9.70;9.00;;;14.50;99.90;;;;;;4945178;29;20686;-79
2022/09/20 11:40:56;;;;;;;10.10;9.40;;;14.70;99.90;;;;;;4949894;29;20292;-78
2022/09/20 11:43:25;;;;;;;10.70;9.70;;;14.70;99.90;;;;;;4942974;29;20239;-79
2022/09/20 11:45:59;;;;;;;10.30;9.50;;;14.80;99.90;;;;;;4944560;29;20211;-79
2022/09/20 11:48:34;;;;;;;8.63;6.47;;;14.70;99.90;;;;;;4950969;29;20241;-79
2022/09/20 11:51:35;;;;;;;7.27;6.73;;;14.70;99.90;;;;;;4940578;29;20227;-79
2022/09/20 11:54:27;;;;;;;10.33;6.63;;;14.60;99.90;;;;;;4944588;28;20261;-79
2022/09/20 11:56:58;;;;;;;10.47;9.73;;;14.80;99.90;;;;;;4948518;29;20205;-80
2022/09/20 11:59:32;;;;;;;9.07;8.37;;;14.70;99.90;;;;;;4941782;28;20196;-79
2022/09/20 12:02:01;;;;;;;9.10;8.50;;;14.90;99.90;;;;;;4947435;29;20225;-78
2022/09/20 12:04:31;;;;;;;7.13;3.27;;;14.80;99.90;;;;;;4945749;29;20203;-79
2022/09/20 12:07:02;;;;;;;6.27;5.67;;;14.80;99.90;;;;;;4945798;29;20742;-79
2022/09/20 12:09:32;;;;;;;8.90;8.23;;;14.90;99.90;;;;;;4946272;29;20205;-79
2022/09/20 12:12:15;;;;;;;9.43;8.73;;;15.10;99.90;;;;;;4944801;29;20283;-79
2022/09/20 12:14:53;;;;;;;8.03;7.27;;;15.20;99.90;;;;;;4944919;29;20200;-79
2022/09/20 12:17:56;;;;;;;9.00;8.30;;;15.50;99.90;;;;;;4952151;29;20197;-79
2022/09/20 12:21:04;;;;;;;9.40;8.70;;;15.50;99.90;;;;;;4947186;29;20232;-78
2022/09/20 12:24:08;;;;;;;9.37;8.60;;;15.70;99.90;;;;;;4943176;29;20214;-79
2022/09/20 12:26:44;;;;;;;8.33;7.73;;;15.80;99.90;;;;;;4946153;29;20223;-79
2022/09/20 12:29:53;;;;;;;6.80;6.30;;;15.90;99.90;;;;;;4945447;29;20610;-79
2022/09/20 12:32:47;;;;;;;8.83;8.03;;;16.00;99.90;;;;;;4947261;29;20224;-79
2022/09/20 12:35:58;;;;;;;7.87;7.20;;;16.30;99.90;;;;;;4925729;29;20205;-79
2022/09/20 12:38:34;;;;;;;8.20;7.33;;;16.50;99.90;;;;;;4945647;29;20194;-79
2022/09/20 12:41:05;;;;;;;8.67;7.87;;;16.80;99.90;;;;;;4947155;28;20235;-79
2022/09/20 12:43:34;;;;;;;8.73;7.93;;;16.90;99.90;;;;;;4946341;29;20250;-79
2022/09/20 12:46:02;;;;;;;9.60;8.33;;;16.80;99.90;;;;;;4946749;29;20683;-80
2022/09/20 12:48:36;;;;;;;4.53;4.17;;;17.00;99.90;;;;;;4942672;29;20222;-79
2022/09/20 12:54:06;;;;;;;8.60;8.00;;;16.60;99.90;;;;;;4941592;29;20213;-79
2022/09/20 12:56:36;;;;;;;8.37;7.60;;;16.50;99.90;;;;;;4945675;29;20202;-79
2022/09/20 12:59:06;;;;;;;8.67;8.03;;;16.40;99.90;;;;;;4953517;29;20252;-79
2022/09/20 13:01:39;;;;;;;9.40;8.60;;;16.40;99.90;;;;;;4943909;29;20277;-78
2022/09/20 13:04:51;;;;;;;8.77;8.10;;;16.30;99.90;;;;;;4943890;29;20203;-78
2022/09/20 13:07:34;;;;;;;9.63;8.93;;;16.20;99.90;;;;;;4944268;28;20250;-80
2022/09/20 13:10:06;;;;;;;11.77;10.43;;;16.00;99.90;;;;;;4953174;29;20225;-78
2022/09/20 13:12:39;;;;;;;9.43;8.70;;;15.90;99.90;;;;;;4947222;29;20668;-79
2022/09/20 13:15:08;;;;;;;9.43;8.63;;;15.80;99.90;;;;;;4946073;29;20194;-80
2022/09/20 13:17:36;;;;;;;8.90;8.20;;;15.70;99.90;;;;;;4946483;28;20201;-79
2022/09/20 13:20:06;;;;;;;8.87;8.17;;;15.50;99.90;;;;;;4946511;29;20274;-79
2022/09/20 13:22:40;;;;;;;9.53;8.93;;;15.40;99.90;;;;;;4949598;29;20260;-79
2022/09/20 13:25:14;;;;;;;9.47;8.87;;;15.40;99.90;;;;;;4950281;28;20201;-79
2022/09/20 13:27:49;;;;;;;8.83;8.23;;;15.40;99.90;;;;;;4949553;29;20209;-78
2022/09/20 13:30:18;;;;;;;8.47;7.90;;;15.50;99.90;;;;;;4947323;29;20228;-79
2022/09/20 13:32:45;;;;;;;8.00;7.50;;;15.50;99.90;;;;;;4956920;29;20230;-79
2022/09/20 13:35:17;;;;;;;8.50;7.80;;;15.50;99.90;;;;;;4947865;29;20200;-78
2022/09/20 13:37:52;;;;;;;8.47;7.77;;;15.60;99.90;;;;;;4948019;29;20635;-78
2022/09/20 13:40:21;;;;;;;8.57;7.87;;;15.50;99.90;;;;;;4946217;29;20225;-79
2022/09/20 13:42:49;;;;;;;9.13;8.43;;;15.50;99.90;;;;;;4947984;29;20249;-78
2022/09/20 13:45:18;;;;;;;8.93;8.33;;;15.50;99.90;;;;;;4956498;29;20208;-80